createdAt,value
2022-10-05T00:00:46.264Z,6.62
2022-10-05T00:03:13.777Z,6.61
2022-10-05T00:05:41.404Z,6.47
2022-10-05T00:08:15.487Z,6.59
2022-10-05T00:10:43.005Z,6.58
2022-10-05T00:13:16.375Z,6.56
2022-10-05T00:15:44.177Z,6.57
2022-10-05T00:18:15.158Z,6.57
2022-10-05T00:20:42.842Z,6.53
2022-10-05T00:23:28.537Z,6.51
2022-10-05T00:26:11.391Z,6.41
2022-10-05T00:28:41.319Z,6.38
2022-10-05T00:31:17.411Z,6.38
2022-10-05T00:33:44.536Z,6.47
2022-10-05T00:36:11.759Z,6.48
2022-10-05T00:38:39.139Z,6.44
2022-10-05T00:41:06.823Z,6.46
2022-10-05T00:43:55.854Z,6.46
2022-10-05T00:47:15.273Z,6.42
2022-10-05T00:50:00.529Z,6.37
2022-10-05T00:52:33.177Z,6.36
2022-10-05T00:55:06.171Z,6.22
2022-10-05T00:57:49.248Z,6.31
2022-10-05T01:00:19.237Z,6.32
2022-10-05T01:03:22.510Z,6.23
2022-10-05T01:06:22.707Z,6.30
2022-10-05T01:08:55.782Z,6.27
2022-10-05T01:11:45.842Z,6.29
2022-10-05T01:14:15.716Z,6.26
2022-10-05T01:16:49.510Z,6.27
2022-10-05T01:19:42.714Z,6.26
2022-10-05T01:22:47.228Z,6.25
2022-10-05T01:25:47.659Z,6.29
2022-10-05T01:28:20.732Z,6.25
2022-10-05T01:31:04.551Z,6.29
2022-10-05T01:33:41.483Z,6.30
2022-10-05T01:36:34.781Z,6.30
2022-10-05T01:39:19.592Z,6.30
2022-10-05T01:42:26.237Z,6.26
2022-10-05T01:45:12.548Z,6.24
2022-10-05T01:47:47.657Z,6.07
2022-10-05T01:50:38.233Z,6.18
2022-10-05T01:53:23.401Z,6.13
2022-10-05T01:56:09.636Z,6.06
2022-10-05T01:59:16.856Z,5.99
2022-10-05T02:01:55.666Z,5.92
2022-10-05T02:05:02.371Z,5.92
2022-10-05T02:07:38.983Z,5.90
2022-10-05T02:10:22.567Z,5.83
2022-10-05T02:12:54.998Z,5.67
2022-10-05T02:15:33.689Z,5.77
2022-10-05T02:18:07.445Z,5.80
2022-10-05T02:20:37.365Z,5.50
2022-10-05T02:23:28.092Z,5.71
2022-10-05T02:25:58.449Z,5.72
2022-10-05T02:28:35.269Z,5.57
2022-10-05T02:31:15.301Z,5.53
2022-10-05T02:33:42.469Z,5.64
2022-10-05T02:36:24.028Z,5.66
2022-10-05T02:39:17.195Z,5.66
2022-10-05T02:41:58.663Z,5.61
2022-10-05T02:44:50.089Z,5.65
2022-10-05T02:47:30.098Z,5.65
2022-10-05T02:50:13.035Z,5.66
2022-10-05T02:52:56.329Z,5.62
2022-10-05T02:55:35.419Z,5.59
2022-10-05T02:58:16.307Z,5.59
2022-10-05T03:00:51.272Z,5.45
2022-10-05T03:03:22.351Z,5.55
2022-10-05T03:06:03.787Z,5.54
2022-10-05T03:08:41.623Z,5.49
2022-10-05T03:11:48.448Z,5.58
2022-10-05T03:14:26.521Z,5.57
2022-10-05T03:17:19.253Z,5.57
2022-10-05T03:19:47.770Z,5.52
2022-10-05T03:22:27.015Z,5.48
2022-10-05T03:25:06.332Z,5.58
2022-10-05T03:27:42.210Z,5.56
2022-10-05T03:30:32.052Z,5.55
2022-10-05T03:33:08.103Z,5.52
2022-10-05T03:35:46.521Z,5.46
2022-10-05T03:38:52.818Z,5.53
2022-10-05T03:41:39.273Z,5.48
2022-10-05T03:44:26.560Z,5.46
2022-10-05T03:47:12.983Z,5.42
2022-10-05T03:50:04.542Z,5.44
2022-10-05T03:53:08.241Z,5.46
2022-10-05T03:56:15.766Z,5.32
2022-10-05T03:58:53.054Z,5.39
2022-10-05T04:01:26.016Z,5.39
2022-10-05T04:03:59.799Z,5.34
2022-10-05T04:06:34.124Z,5.46
2022-10-05T04:09:23.297Z,5.45
2022-10-05T04:12:01.149Z,5.38
2022-10-05T04:14:37.175Z,5.46
2022-10-05T04:17:18.344Z,5.45
2022-10-05T04:19:53.669Z,5.41
2022-10-05T04:22:32.275Z,5.44
2022-10-05T04:25:06.496Z,5.19
2022-10-05T04:27:43.047Z,5.46
2022-10-05T04:30:18.825Z,5.43
2022-10-05T04:32:54.298Z,5.45
2022-10-05T04:35:46.436Z,5.46
2022-10-05T04:38:24.938Z,5.47
2022-10-05T04:40:59.279Z,5.46
2022-10-05T04:43:44.825Z,5.44
2022-10-05T04:46:32.940Z,5.43
2022-10-05T04:49:37.087Z,5.47
2022-10-05T04:52:25.173Z,5.49
2022-10-05T04:55:00.740Z,5.51
2022-10-05T04:57:38.272Z,5.38
2022-10-05T05:00:10.176Z,5.51
2022-10-05T05:02:41.013Z,5.47
2022-10-05T05:05:26.340Z,5.52
2022-10-05T05:08:16.395Z,5.56
2022-10-05T05:11:05.264Z,5.48
2022-10-05T05:13:47.301Z,5.59
2022-10-05T05:16:36.345Z,5.59
2022-10-05T05:19:33.559Z,5.64
2022-10-05T05:22:07.217Z,5.67
2022-10-05T05:25:04.976Z,5.77
2022-10-05T05:27:47.763Z,5.76
2022-10-05T05:30:23.183Z,5.60
2022-10-05T05:33:00.173Z,5.78
2022-10-05T05:35:48.237Z,5.79
2022-10-05T05:38:35.457Z,5.71
2022-10-05T05:41:08.468Z,5.80
2022-10-05T05:43:59.081Z,5.83
2022-10-05T05:46:58.758Z,5.59
2022-10-05T05:49:53.927Z,5.82
2022-10-05T05:52:41.903Z,5.78
2022-10-05T05:55:16.208Z,5.99
2022-10-05T05:58:06.881Z,6.02
2022-10-05T06:01:30.745Z,6.03
2022-10-05T06:04:19.741Z,6.04
2022-10-05T06:06:52.224Z,6.03
2022-10-05T06:09:41.936Z,6.03
2022-10-05T06:12:37.811Z,5.99
2022-10-05T06:15:33.012Z,5.94
2022-10-05T06:18:06.661Z,5.97
2022-10-05T06:20:43.119Z,6.08
2022-10-05T06:23:19.465Z,5.86
2022-10-05T06:26:10.980Z,6.10
2022-10-05T06:28:41.499Z,6.12
2022-10-05T06:31:19.109Z,5.88
2022-10-05T06:34:05.654Z,6.25
2022-10-05T06:36:49.347Z,6.35
2022-10-05T06:39:39.146Z,6.43
2022-10-05T06:42:40.208Z,6.51
2022-10-05T06:45:41.156Z,6.34
2022-10-05T06:48:27.503Z,6.51
2022-10-05T06:51:27.130Z,6.42
2022-10-05T06:54:37.406Z,6.61
2022-10-05T06:57:26.997Z,6.63
2022-10-05T07:00:01.934Z,6.51
2022-10-05T07:03:02.905Z,6.69
2022-10-05T07:05:33.000Z,6.71
2022-10-05T07:08:11.960Z,6.71
2022-10-05T07:11:14.646Z,6.78
2022-10-05T07:14:00.558Z,6.72
2022-10-05T07:16:56.720Z,6.71
2022-10-05T07:20:13.224Z,6.74
2022-10-05T07:23:03.718Z,6.77
2022-10-05T07:25:50.896Z,6.91
2022-10-05T07:28:39.433Z,6.99
2022-10-05T07:31:31.777Z,6.79
2022-10-05T07:34:23.632Z,7.04
2022-10-05T07:37:47.987Z,7.00
2022-10-05T07:41:02.976Z,7.13
2022-10-05T07:44:01.698Z,7.11
2022-10-05T07:46:52.022Z,7.17
2022-10-05T07:49:49.064Z,7.04
2022-10-05T07:52:35.004Z,7.08
2022-10-05T07:55:25.442Z,6.96
2022-10-05T07:58:05.057Z,6.93
2022-10-05T08:00:45.029Z,6.90
2022-10-05T08:03:40.786Z,6.94
2022-10-05T08:06:16.335Z,7.09
2022-10-05T08:09:21.687Z,7.09
2022-10-05T08:11:58.331Z,7.12
2022-10-05T08:14:41.283Z,7.23
2022-10-05T08:17:40.961Z,7.29
2022-10-05T08:20:40.823Z,7.37
2022-10-05T08:23:45.437Z,7.50
2022-10-05T08:26:36.687Z,7.62
2022-10-05T08:29:13.819Z,7.83
2022-10-05T08:31:46.152Z,7.87
2022-10-05T08:34:20.352Z,7.95
2022-10-05T08:36:57.662Z,7.76
2022-10-05T08:39:29.958Z,7.89
2022-10-05T08:42:11.147Z,7.80
2022-10-05T08:44:50.009Z,7.76
2022-10-05T08:47:27.207Z,7.67
2022-10-05T08:50:11.072Z,7.60
2022-10-05T08:52:53.299Z,7.65
2022-10-05T08:55:46.562Z,7.81
2022-10-05T08:58:43.440Z,8.12
2022-10-05T09:01:16.822Z,8.23
2022-10-05T09:04:17.691Z,8.28
2022-10-05T09:06:54.898Z,8.36
2022-10-05T09:09:44.289Z,8.34
2022-10-05T09:12:36.226Z,8.31
2022-10-05T09:15:35.913Z,8.38
2022-10-05T09:18:27.275Z,8.51
2022-10-05T09:21:12.946Z,8.57
2022-10-05T09:23:40.675Z,8.70
2022-10-05T09:26:26.260Z,8.92
2022-10-05T09:29:22.732Z,8.85
2022-10-05T09:32:11.768Z,8.65
2022-10-05T09:35:27.784Z,8.66
2022-10-05T09:38:19.149Z,8.53
2022-10-05T09:41:13.947Z,8.48
2022-10-05T09:44:17.320Z,8.40
2022-10-05T09:47:04.312Z,8.45
2022-10-05T09:49:37.433Z,8.68
2022-10-05T09:52:42.125Z,9.21
2022-10-05T09:55:47.579Z,9.26
2022-10-05T09:58:42.356Z,9.30
2022-10-05T10:01:33.253Z,9.80
2022-10-05T10:04:10.316Z,10.46
2022-10-05T10:06:54.933Z,10.83
2022-10-05T10:09:53.143Z,11.09
2022-10-05T10:12:48.079Z,11.21
2022-10-05T10:15:58.246Z,11.01
2022-10-05T10:18:55.580Z,10.64
2022-10-05T10:21:36.077Z,10.87
2022-10-05T10:24:18.607Z,10.79
2022-10-05T10:27:10.588Z,11.22
2022-10-05T10:30:10.076Z,11.87
2022-10-05T10:32:48.738Z,11.93
2022-10-05T10:35:52.043Z,11.26
2022-10-05T10:38:58.519Z,10.99
2022-10-05T10:41:47.090Z,10.58
2022-10-05T10:44:51.781Z,9.89
2022-10-05T10:47:37.843Z,9.46
2022-10-05T10:50:28.457Z,9.26
2022-10-05T10:53:13.964Z,9.00
2022-10-05T10:56:20.081Z,8.58
2022-10-05T10:59:06.125Z,8.39
2022-10-05T11:01:46.212Z,8.19
2022-10-05T11:04:32.823Z,8.13
2022-10-05T11:07:23.563Z,8.20
2022-10-05T11:10:18.349Z,8.15
2022-10-05T11:13:13.495Z,8.25
2022-10-05T11:15:54.476Z,8.19
2022-10-05T11:18:50.145Z,8.18
2022-10-05T11:21:17.384Z,8.35
2022-10-05T11:24:15.885Z,8.34
2022-10-05T11:30:37.276Z,8.36
2022-10-05T11:33:22.673Z,8.43
2022-10-05T11:36:22.694Z,8.36
2022-10-05T11:39:30.667Z,8.05
2022-10-05T11:42:22.351Z,8.10
2022-10-05T11:45:17.730Z,8.09
2022-10-05T11:48:15.928Z,8.17
2022-10-05T11:50:52.873Z,8.42
2022-10-05T11:53:24.387Z,8.50
2022-10-05T11:56:03.857Z,8.55
2022-10-05T11:58:37.271Z,8.46
2022-10-05T12:01:30.165Z,8.41
2022-10-05T12:04:29.052Z,8.32
2022-10-05T12:07:17.849Z,8.40
2022-10-05T12:10:18.104Z,8.53
2022-10-05T12:13:10.385Z,8.55
2022-10-05T12:16:03.027Z,8.56
2022-10-05T12:18:30.741Z,8.52
2022-10-05T12:21:16.538Z,8.55
2022-10-05T12:24:07.894Z,8.62
2022-10-05T12:26:47.958Z,8.99
2022-10-05T12:29:44.031Z,9.77
2022-10-05T12:32:41.658Z,10.31
2022-10-05T12:35:43.513Z,10.43
2022-10-05T12:41:20.104Z,10.38
2022-10-05T12:43:55.281Z,10.17
2022-10-05T12:46:22.491Z,10.27
2022-10-05T12:49:08.342Z,10.28
2022-10-05T12:51:45.722Z,10.33
2022-10-05T12:54:24.132Z,10.37
2022-10-05T12:57:07.337Z,9.90
2022-10-05T13:00:03.290Z,9.45
2022-10-05T13:02:47.153Z,9.14
2022-10-05T13:05:30.868Z,9.05
2022-10-05T13:08:07.761Z,9.17
2022-10-05T13:10:41.663Z,9.34
2022-10-05T13:13:27.717Z,9.37
2022-10-05T13:15:55.487Z,9.52
2022-10-05T13:18:52.603Z,9.52
2022-10-05T13:21:53.143Z,9.90
2022-10-05T13:24:31.362Z,10.26
2022-10-05T13:27:09.147Z,10.51
2022-10-05T13:30:01.297Z,10.84
2022-10-05T13:32:45.171Z,11.17
2022-10-05T13:35:18.478Z,10.99
2022-10-05T13:38:21.494Z,10.82
2022-10-05T13:41:04.809Z,10.56
2022-10-05T13:43:47.498Z,10.29
2022-10-05T13:46:28.701Z,9.90
2022-10-05T13:49:30.510Z,9.70
2022-10-05T13:52:18.269Z,9.44
2022-10-05T13:54:48.697Z,9.20
2022-10-05T13:57:45.671Z,8.93
2022-10-05T14:00:25.607Z,8.59
2022-10-05T14:02:57.492Z,8.75
2022-10-05T14:05:28.391Z,8.74
2022-10-05T14:07:58.895Z,8.91
2022-10-05T14:10:40.131Z,9.06
2022-10-05T14:13:29.880Z,9.16
2022-10-05T14:16:19.307Z,9.26
2022-10-05T14:19:14.033Z,9.23
2022-10-05T14:22:01.757Z,9.01
2022-10-05T14:24:50.843Z,9.08
2022-10-05T14:27:19.118Z,9.09
2022-10-05T14:29:57.504Z,8.97
2022-10-05T14:32:27.937Z,8.85
2022-10-05T14:34:55.886Z,8.64
2022-10-05T14:37:26.417Z,8.45
2022-10-05T14:39:57.829Z,8.23
2022-10-05T14:42:30.441Z,8.01
2022-10-05T14:45:16.491Z,7.84
2022-10-05T14:47:53.634Z,7.71
2022-10-05T14:50:26.493Z,7.47
2022-10-05T14:53:12.585Z,7.47
2022-10-05T14:56:07.654Z,7.41
2022-10-05T14:58:54.704Z,7.36
2022-10-05T15:01:35.744Z,7.29
2022-10-05T15:04:22.918Z,7.22
2022-10-05T15:07:21.676Z,7.22
2022-10-05T15:09:54.962Z,7.11
2022-10-05T15:12:39.050Z,7.08
2022-10-05T15:15:29.862Z,7.00
2022-10-05T15:18:42.461Z,6.99
2022-10-05T15:21:33.791Z,6.92
2022-10-05T15:24:20.826Z,6.93
2022-10-05T15:26:52.241Z,6.89
2022-10-05T15:29:47.425Z,6.88
2022-10-05T15:32:43.043Z,6.85
2022-10-05T15:35:37.181Z,6.86
2022-10-05T15:38:21.926Z,6.90
2022-10-05T15:40:59.718Z,6.89
2022-10-05T15:43:41.962Z,6.81
2022-10-05T15:46:25.336Z,6.85
2022-10-05T15:49:12.918Z,6.83
2022-10-05T15:51:56.982Z,6.82
2022-10-05T15:54:56.969Z,6.78
2022-10-05T15:57:52.888Z,6.78
2022-10-05T16:00:24.252Z,6.75
2022-10-05T16:03:00.131Z,6.76
2022-10-05T16:05:58.366Z,6.73
2022-10-05T16:09:04.504Z,6.69
2022-10-05T16:12:05.710Z,6.67
2022-10-05T16:14:55.755Z,6.66
2022-10-05T16:17:52.828Z,6.66
2022-10-05T16:20:34.941Z,6.68
2022-10-05T16:23:07.585Z,6.68
2022-10-05T16:26:01.851Z,6.66
2022-10-05T16:29:13.731Z,6.55
2022-10-05T16:31:56.760Z,6.56
2022-10-05T16:34:55.058Z,6.55
2022-10-05T16:37:42.607Z,6.50
2022-10-05T16:40:32.192Z,6.48
2022-10-05T16:43:26.354Z,6.42
2022-10-05T16:46:48.754Z,6.44
2022-10-05T16:49:50.100Z,6.26
2022-10-05T16:52:23.134Z,6.41
2022-10-05T16:54:57.375Z,6.42
2022-10-05T16:57:39.814Z,6.25
2022-10-05T17:00:25.859Z,6.49
2022-10-05T17:03:35.364Z,6.36
2022-10-05T17:06:44.805Z,6.40
2022-10-05T17:09:35.454Z,6.27
2022-10-05T17:12:17.544Z,6.43
2022-10-05T17:15:03.962Z,6.46
2022-10-05T17:17:42.604Z,6.40
2022-10-05T17:20:40.237Z,6.37
2022-10-05T17:23:31.877Z,6.32
2022-10-05T17:26:05.551Z,6.28
2022-10-05T17:28:40.842Z,6.22
2022-10-05T17:31:26.457Z,5.94
2022-10-05T17:34:00.502Z,6.17
2022-10-05T17:36:50.276Z,6.10
2022-10-05T17:39:23.029Z,6.11
2022-10-05T17:41:51.157Z,6.04
2022-10-05T17:44:25.451Z,6.09
2022-10-05T17:47:07.530Z,6.11
2022-10-05T17:49:38.998Z,6.13
2022-10-05T17:52:41.543Z,6.16
2022-10-05T17:55:27.855Z,5.92
2022-10-05T17:58:00.363Z,6.13
2022-10-05T18:00:36.176Z,6.16
2022-10-05T18:03:44.148Z,6.23
2022-10-05T18:06:33.316Z,6.25
2022-10-05T18:09:34.092Z,6.19
2022-10-05T18:12:17.135Z,6.31
2022-10-05T18:14:56.546Z,6.29
2022-10-05T18:17:48.577Z,6.32
2022-10-05T18:20:30.731Z,6.34
2022-10-05T18:23:10.197Z,6.32
2022-10-05T18:25:39.846Z,6.30
2022-10-05T18:28:14.401Z,6.18
2022-10-05T18:31:10.451Z,6.29
2022-10-05T18:33:53.744Z,6.12
2022-10-05T18:36:45.248Z,6.20
2022-10-05T18:39:31.432Z,6.10
2022-10-05T18:42:25.446Z,6.10
2022-10-05T18:45:03.467Z,5.95
2022-10-05T18:47:51.305Z,5.99
2022-10-05T18:50:26.956Z,5.96
2022-10-05T18:53:17.837Z,5.94
2022-10-05T18:55:59.914Z,5.86
2022-10-05T18:58:54.577Z,5.87
2022-10-05T19:01:50.469Z,5.83
2022-10-05T19:04:23.122Z,5.77
2022-10-05T19:07:09.961Z,5.67
2022-10-05T19:09:48.201Z,5.58
2022-10-05T19:12:41.502Z,5.40
2022-10-05T19:15:15.714Z,5.31
2022-10-05T19:17:49.450Z,5.30
2022-10-05T19:20:30.574Z,5.21
2022-10-05T19:23:09.073Z,5.15
2022-10-05T19:25:38.873Z,5.12
2022-10-05T19:28:34.277Z,5.09
2022-10-05T19:31:14.318Z,5.06
2022-10-05T19:33:48.224Z,5.02
2022-10-05T19:36:19.828Z,5.00
2022-10-05T19:39:12.375Z,4.91
2022-10-05T19:41:58.494Z,4.97
2022-10-05T19:44:44.754Z,4.95
2022-10-05T19:47:45.791Z,4.92
2022-10-05T19:50:23.242Z,4.83
2022-10-05T19:52:59.053Z,4.55
2022-10-05T19:55:35.044Z,4.93
2022-10-05T19:58:02.740Z,4.97
2022-10-05T20:00:33.513Z,4.96
2022-10-05T20:03:17.494Z,5.08
2022-10-05T20:05:45.072Z,4.99
2022-10-05T20:08:19.290Z,5.09
2022-10-05T20:11:22.869Z,5.13
2022-10-05T20:13:53.830Z,5.19
2022-10-05T20:16:46.385Z,5.24
2022-10-05T20:19:50.418Z,5.30
2022-10-05T20:22:24.987Z,5.36
2022-10-05T20:24:54.278Z,5.41
2022-10-05T20:27:42.249Z,5.45
2022-10-05T20:30:12.482Z,5.45
2022-10-05T20:32:39.635Z,5.41
2022-10-05T20:35:09.598Z,5.57
2022-10-05T20:37:37.010Z,5.58
2022-10-05T20:40:06.002Z,5.58
2022-10-05T20:42:33.110Z,5.61
2022-10-05T20:45:00.124Z,5.58
2022-10-05T20:47:27.268Z,5.69
2022-10-05T20:49:54.742Z,5.71
2022-10-05T20:52:23.469Z,5.64
2022-10-05T20:54:53.969Z,5.77
2022-10-05T20:57:21.398Z,5.76
2022-10-05T20:59:48.840Z,5.76
2022-10-05T21:02:15.993Z,5.70
2022-10-05T21:04:47.676Z,5.83
2022-10-05T21:07:17.207Z,5.84
2022-10-05T21:09:44.978Z,5.84
2022-10-05T21:12:13.200Z,5.66
2022-10-05T21:14:40.756Z,5.73
2022-10-05T21:17:07.807Z,5.82
2022-10-05T21:19:44.000Z,5.87
2022-10-05T21:22:11.614Z,5.76
2022-10-05T21:24:41.067Z,5.88
2022-10-05T21:27:08.899Z,5.85
2022-10-05T21:29:37.253Z,5.75
2022-10-05T21:32:08.784Z,5.80
2022-10-05T21:34:35.803Z,5.78
2022-10-05T21:37:03.054Z,5.79
2022-10-05T21:39:30.249Z,5.69
2022-10-05T21:41:58.031Z,5.81
2022-10-05T21:44:25.553Z,5.81
2022-10-05T21:46:52.789Z,5.81
2022-10-05T21:49:20.070Z,5.77
2022-10-05T21:51:47.656Z,5.79
2022-10-05T21:54:19.364Z,5.91
2022-10-05T21:56:50.999Z,5.93
2022-10-05T21:59:22.347Z,5.95
2022-10-05T22:01:49.353Z,5.96
2022-10-05T22:04:16.439Z,5.95
2022-10-05T22:06:43.774Z,5.96
2022-10-05T22:09:11.162Z,6.00
2022-10-05T22:11:38.438Z,5.99
2022-10-05T22:14:05.608Z,6.03
2022-10-05T22:16:38.719Z,6.14
2022-10-05T22:19:10.894Z,6.11
2022-10-05T22:21:41.909Z,6.05
2022-10-05T22:24:11.832Z,6.10
2022-10-05T22:26:41.334Z,5.97
2022-10-05T22:29:09.788Z,6.06
2022-10-05T22:31:37.864Z,6.07
2022-10-05T22:34:05.020Z,6.09
2022-10-05T22:36:34.778Z,5.93
2022-10-05T22:39:02.109Z,5.96
2022-10-05T22:41:30.236Z,5.99
2022-10-05T22:43:57.393Z,6.03
2022-10-05T22:46:24.744Z,6.00
2022-10-05T22:48:51.810Z,5.88
2022-10-05T22:51:19.256Z,6.04
2022-10-05T22:53:46.418Z,5.96
2022-10-05T22:56:14.501Z,6.03
2022-10-05T22:58:43.289Z,6.09
2022-10-05T23:01:16.366Z,5.98
2022-10-05T23:03:44.641Z,6.11
2022-10-05T23:06:14.817Z,6.09
2022-10-05T23:08:42.808Z,6.00
2022-10-05T23:11:13.820Z,5.95
2022-10-05T23:13:42.283Z,5.87
2022-10-05T23:16:17.897Z,6.08
2022-10-05T23:18:47.422Z,5.95
2022-10-05T23:21:14.855Z,6.10
2022-10-05T23:23:45.658Z,6.09
2022-10-05T23:26:13.426Z,5.98
2022-10-05T23:28:46.433Z,6.05
2022-10-05T23:31:19.373Z,5.92
2022-10-05T23:33:47.258Z,6.08
2022-10-05T23:36:21.220Z,6.08
2022-10-05T23:38:48.510Z,5.98
2022-10-05T23:41:17.192Z,6.06
2022-10-05T23:43:44.388Z,5.99
2022-10-05T23:46:12.821Z,5.94
2022-10-05T23:48:41.157Z,6.08
2022-10-05T23:51:11.002Z,6.08
2022-10-05T23:53:38.170Z,6.03
2022-10-05T23:56:05.922Z,6.10
2022-10-05T23:58:33.018Z,6.00
